Airport View

Enter AWOS ICAO identifier for current METAR.

ex. KFNL

KSRQ 191753Z 20014KT 10SM CLR 32/26 A2999 RMK AO2 SLP156 T03170256 10317 20244 58005

19 Jun 2019 18:46

Frequency: 124.375

Phone: 941-359-0117

Other Area AWOS: KVNC - KSPG - KMCF - KTPF

TAF KSRQ 191734Z 1918/2018 23012KT P6SM SCT025 BKN250 FM200100 21007KT P6SM SCT025 BKN250 FM201400 24012KT P6SM SCT035 SCT250